Antigo, Wisconsin
Current Conditions -  °F | °C
As of 9:55 PM on Wednesday 17 Dec 2014 (Local Time) from KAIG Reporting Station
Overcast Overcast  
Wind Chill: -12°   Ceiling: 1000
Heat Index: -6°   Visibility: 10mi
Dew Point: -7°   Wind: 10mph
Humidity: 91%   Direction: 360°N
Pressure: 30.19"   Gusts: NA
Location:  45.14°N, 89.15°W
Report Text: KAIG 180355Z AUTO 36009KT 10SM OVC010 M06/M07 A3019 RMK AO2 T10581070 410551090
Loading
Personal Weather Stations






























Interactive Weather Map New forecast layout! Learn more

10-Day Weather Forecast

Advertisements
Track Severe Weather on mobile